sensor_id;sensor_type;location;lat;lon;timestamp;P1;durP1;ratioP1;P2;durP2;ratioP2
27576;SDS011;15011;53.380;10.034;2022-08-06T00:03:36;5.13;;;1.27;;
27576;SDS011;15011;53.380;10.034;2022-08-06T00:08:37;8.70;;;1.70;;
27576;SDS011;15011;53.380;10.034;2022-08-06T00:13:37;5.35;;;1.45;;
27576;SDS011;15011;53.380;10.034;2022-08-06T00:18:38;6.82;;;1.73;;
27576;SDS011;15011;53.380;10.034;2022-08-06T00:23:38;4.45;;;1.10;;
27576;SDS011;15011;53.380;10.034;2022-08-06T00:28:39;7.65;;;1.48;;
27576;SDS011;15011;53.380;10.034;2022-08-06T00:33:39;3.55;;;1.42;;
27576;SDS011;15011;53.380;10.034;2022-08-06T00:38:41;3.65;;;1.50;;
27576;SDS011;15011;53.380;10.034;2022-08-06T00:43:42;5.68;;;1.48;;
27576;SDS011;15011;53.380;10.034;2022-08-06T00:48:42;2.53;;;1.50;;
27576;SDS011;15011;53.380;10.034;2022-08-06T00:53:43;3.67;;;1.70;;
27576;SDS011;15011;53.380;10.034;2022-08-06T00:58:44;2.85;;;1.35;;
27576;SDS011;15011;53.380;10.034;2022-08-06T01:03:45;3.10;;;1.70;;
27576;SDS011;15011;53.380;10.034;2022-08-06T01:08:45;6.05;;;1.58;;
27576;SDS011;15011;53.380;10.034;2022-08-06T01:13:46;8.25;;;1.45;;
27576;SDS011;15011;53.380;10.034;2022-08-06T01:30:02;7.88;;;1.70;;
27576;SDS011;15011;53.380;10.034;2022-08-06T01:35:21;5.25;;;1.90;;
27576;SDS011;15011;53.380;10.034;2022-08-06T01:40:29;3.92;;;2.00;;
27576;SDS011;15011;53.380;10.034;2022-08-06T01:45:33;3.35;;;1.85;;
27576;SDS011;15011;53.380;10.034;2022-08-06T01:50:41;5.15;;;1.77;;
27576;SDS011;15011;53.380;10.034;2022-08-06T01:55:45;6.05;;;2.05;;
27576;SDS011;15011;53.380;10.034;2022-08-06T02:00:48;8.73;;;2.30;;
27576;SDS011;15011;53.380;10.034;2022-08-06T02:05:51;5.90;;;2.13;;
27576;SDS011;15011;53.380;10.034;2022-08-06T02:10:54;2.95;;;2.20;;
27576;SDS011;15011;53.380;10.034;2022-08-06T02:15:54;5.20;;;2.60;;
27576;SDS011;15011;53.380;10.034;2022-08-06T02:20:55;8.40;;;2.35;;
27576;SDS011;15011;53.380;10.034;2022-08-06T02:25:57;3.43;;;2.30;;
27576;SDS011;15011;53.380;10.034;2022-08-06T02:30:59;5.05;;;2.78;;
27576;SDS011;15011;53.380;10.034;2022-08-06T02:36:05;5.28;;;2.58;;
27576;SDS011;15011;53.380;10.034;2022-08-06T02:41:30;5.22;;;2.72;;
27576;SDS011;15011;53.380;10.034;2022-08-06T02:46:52;5.53;;;2.53;;
27576;SDS011;15011;53.380;10.034;2022-08-06T02:51:59;7.53;;;2.70;;
27576;SDS011;15011;53.380;10.034;2022-08-06T02:57:02;5.60;;;2.50;;
27576;SDS011;15011;53.380;10.034;2022-08-06T03:02:03;6.78;;;2.78;;
27576;SDS011;15011;53.380;10.034;2022-08-06T03:07:07;6.63;;;2.85;;
27576;SDS011;15011;53.380;10.034;2022-08-06T03:12:09;7.07;;;2.75;;
27576;SDS011;15011;53.380;10.034;2022-08-06T03:17:11;5.18;;;2.90;;
27576;SDS011;15011;53.380;10.034;2022-08-06T03:22:13;6.45;;;2.40;;
27576;SDS011;15011;53.380;10.034;2022-08-06T03:27:14;3.83;;;2.57;;
27576;SDS011;15011;53.380;10.034;2022-08-06T03:32:16;6.78;;;2.80;;
27576;SDS011;15011;53.380;10.034;2022-08-06T03:37:17;6.28;;;3.15;;
27576;SDS011;15011;53.380;10.034;2022-08-06T03:42:18;4.33;;;2.63;;
27576;SDS011;15011;53.380;10.034;2022-08-06T03:47:21;6.53;;;3.27;;
27576;SDS011;15011;53.380;10.034;2022-08-06T03:52:25;5.38;;;2.60;;
27576;SDS011;15011;53.380;10.034;2022-08-06T03:57:31;6.13;;;2.97;;
27576;SDS011;15011;53.380;10.034;2022-08-06T04:02:35;5.60;;;3.00;;
27576;SDS011;15011;53.380;10.034;2022-08-06T04:07:38;5.28;;;2.50;;
27576;SDS011;15011;53.380;10.034;2022-08-06T04:12:38;7.78;;;2.67;;
27576;SDS011;15011;53.380;10.034;2022-08-06T04:17:40;12.13;;;3.55;;
27576;SDS011;15011;53.380;10.034;2022-08-06T04:22:42;6.53;;;3.00;;
27576;SDS011;15011;53.380;10.034;2022-08-06T04:27:43;6.20;;;3.00;;
27576;SDS011;15011;53.380;10.034;2022-08-06T04:32:45;6.15;;;3.10;;
27576;SDS011;15011;53.380;10.034;2022-08-06T04:37:46;3.13;;;2.50;;
27576;SDS011;15011;53.380;10.034;2022-08-06T04:42:47;6.97;;;2.80;;
27576;SDS011;15011;53.380;10.034;2022-08-06T04:47:48;6.28;;;2.88;;
27576;SDS011;15011;53.380;10.034;2022-08-06T04:52:49;4.32;;;2.90;;
27576;SDS011;15011;53.380;10.034;2022-08-06T04:57:49;5.00;;;2.42;;
27576;SDS011;15011;53.380;10.034;2022-08-06T05:02:50;11.95;;;5.68;;
27576;SDS011;15011;53.380;10.034;2022-08-06T05:07:52;6.03;;;2.30;;
27576;SDS011;15011;53.380;10.034;2022-08-06T05:12:55;5.03;;;2.30;;
27576;SDS011;15011;53.380;10.034;2022-08-06T05:18:16;5.85;;;2.45;;
27576;SDS011;15011;53.380;10.034;2022-08-06T05:24:02;4.88;;;2.15;;
27576;SDS011;15011;53.380;10.034;2022-08-06T05:28:44;4.93;;;2.10;;
27576;SDS011;15011;53.380;10.034;2022-08-06T05:33:44;4.05;;;2.15;;
27576;SDS011;15011;53.380;10.034;2022-08-06T05:38:45;3.67;;;2.00;;
27576;SDS011;15011;53.380;10.034;2022-08-06T05:43:46;3.67;;;1.70;;
27576;SDS011;15011;53.380;10.034;2022-08-06T05:48:54;3.35;;;1.60;;
27576;SDS011;15011;53.380;10.034;2022-08-06T05:54:01;2.00;;;1.20;;
27576;SDS011;15011;53.380;10.034;2022-08-06T05:59:29;5.43;;;1.80;;
27576;SDS011;15011;53.380;10.034;2022-08-06T06:04:34;3.70;;;1.10;;
27576;SDS011;15011;53.380;10.034;2022-08-06T06:09:36;5.30;;;1.40;;
27576;SDS011;15011;53.380;10.034;2022-08-06T06:14:38;2.83;;;1.00;;
27576;SDS011;15011;53.380;10.034;2022-08-06T06:25:17;7.50;;;1.25;;
27576;SDS011;15011;53.380;10.034;2022-08-06T06:35:54;7.57;;;1.00;;
27576;SDS011;15011;53.380;10.034;2022-08-06T06:41:41;3.13;;;1.02;;
27576;SDS011;15011;53.380;10.034;2022-08-06T06:46:39;3.95;;;0.90;;
27576;SDS011;15011;53.380;10.034;2022-08-06T06:51:48;6.75;;;1.13;;
27576;SDS011;15011;53.380;10.034;2022-08-06T06:56:51;1.95;;;0.60;;
27576;SDS011;15011;53.380;10.034;2022-08-06T07:01:53;5.93;;;0.63;;
27576;SDS011;15011;53.380;10.034;2022-08-06T07:06:54;5.13;;;1.00;;
27576;SDS011;15011;53.380;10.034;2022-08-06T07:11:56;6.30;;;0.90;;
27576;SDS011;15011;53.380;10.034;2022-08-06T07:16:58;3.38;;;0.98;;
27576;SDS011;15011;53.380;10.034;2022-08-06T07:21:59;1.55;;;0.63;;
27576;SDS011;15011;53.380;10.034;2022-08-06T07:27:00;1.38;;;0.60;;
27576;SDS011;15011;53.380;10.034;2022-08-06T07:32:02;4.30;;;0.70;;
27576;SDS011;15011;53.380;10.034;2022-08-06T07:37:03;3.45;;;0.80;;
27576;SDS011;15011;53.380;10.034;2022-08-06T07:42:08;4.83;;;1.00;;
27576;SDS011;15011;53.380;10.034;2022-08-06T07:47:09;2.15;;;0.60;;
27576;SDS011;15011;53.380;10.034;2022-08-06T07:52:14;1.60;;;0.45;;
27576;SDS011;15011;53.380;10.034;2022-08-06T07:57:15;2.83;;;0.60;;
27576;SDS011;15011;53.380;10.034;2022-08-06T08:02:16;2.20;;;0.68;;
27576;SDS011;15011;53.380;10.034;2022-08-06T08:07:17;2.67;;;0.80;;
27576;SDS011;15011;53.380;10.034;2022-08-06T08:12:18;2.92;;;0.70;;
27576;SDS011;15011;53.380;10.034;2022-08-06T08:17:19;5.15;;;0.80;;
27576;SDS011;15011;53.380;10.034;2022-08-06T08:22:19;4.30;;;0.70;;
27576;SDS011;15011;53.380;10.034;2022-08-06T08:27:20;2.53;;;0.50;;
27576;SDS011;15011;53.380;10.034;2022-08-06T08:32:21;5.15;;;0.88;;
27576;SDS011;15011;53.380;10.034;2022-08-06T08:37:22;1.48;;;0.70;;
27576;SDS011;15011;53.380;10.034;2022-08-06T08:42:25;2.90;;;0.60;;
27576;SDS011;15011;53.380;10.034;2022-08-06T08:47:29;1.77;;;0.52;;
27576;SDS011;15011;53.380;10.034;2022-08-06T08:52:33;0.98;;;0.50;;
27576;SDS011;15011;53.380;10.034;2022-08-06T08:57:34;1.67;;;0.60;;
27576;SDS011;15011;53.380;10.034;2022-08-06T09:02:38;3.08;;;0.50;;
27576;SDS011;15011;53.380;10.034;2022-08-06T09:07:39;5.80;;;0.70;;
27576;SDS011;15011;53.380;10.034;2022-08-06T09:12:40;4.22;;;0.88;;
27576;SDS011;15011;53.380;10.034;2022-08-06T09:17:41;4.17;;;0.77;;
27576;SDS011;15011;53.380;10.034;2022-08-06T09:22:41;2.92;;;0.50;;
27576;SDS011;15011;53.380;10.034;2022-08-06T09:27:50;3.63;;;0.93;;
27576;SDS011;15011;53.380;10.034;2022-08-06T09:32:50;4.30;;;0.70;;
27576;SDS011;15011;53.380;10.034;2022-08-06T09:38:01;2.45;;;0.73;;
27576;SDS011;15011;53.380;10.034;2022-08-06T09:48:04;3.10;;;0.85;;
27576;SDS011;15011;53.380;10.034;2022-08-06T09:53:06;1.83;;;0.52;;
27576;SDS011;15011;53.380;10.034;2022-08-06T09:58:06;1.05;;;0.50;;
27576;SDS011;15011;53.380;10.034;2022-08-06T10:03:08;2.15;;;0.70;;
27576;SDS011;15011;53.380;10.034;2022-08-06T10:08:10;1.10;;;0.57;;
27576;SDS011;15011;53.380;10.034;2022-08-06T10:13:20;3.53;;;0.55;;
27576;SDS011;15011;53.380;10.034;2022-08-06T10:18:33;1.08;;;0.50;;
27576;SDS011;15011;53.380;10.034;2022-08-06T10:23:40;2.30;;;0.52;;
27576;SDS011;15011;53.380;10.034;2022-08-06T10:28:42;1.48;;;0.50;;
27576;SDS011;15011;53.380;10.034;2022-08-06T10:34:29;2.72;;;0.80;;
27576;SDS011;15011;53.380;10.034;2022-08-06T10:39:12;2.08;;;0.63;;
27576;SDS011;15011;53.380;10.034;2022-08-06T10:44:14;2.92;;;0.73;;
27576;SDS011;15011;53.380;10.034;2022-08-06T10:49:14;3.97;;;0.90;;
27576;SDS011;15011;53.380;10.034;2022-08-06T10:54:16;4.40;;;0.63;;
27576;SDS011;15011;53.380;10.034;2022-08-06T10:59:16;3.63;;;0.80;;
27576;SDS011;15011;53.380;10.034;2022-08-06T11:04:19;1.77;;;0.60;;
27576;SDS011;15011;53.380;10.034;2022-08-06T11:09:38;10.18;;;1.45;;
27576;SDS011;15011;53.380;10.034;2022-08-06T11:14:45;3.60;;;0.70;;
27576;SDS011;15011;53.380;10.034;2022-08-06T11:19:47;2.38;;;0.60;;
27576;SDS011;15011;53.380;10.034;2022-08-06T11:24:49;2.55;;;0.70;;
27576;SDS011;15011;53.380;10.034;2022-08-06T11:30:07;4.28;;;0.95;;
27576;SDS011;15011;53.380;10.034;2022-08-06T11:51:47;2.47;;;1.23;;
27576;SDS011;15011;53.380;10.034;2022-08-06T12:07:19;2.53;;;1.05;;
27576;SDS011;15011;53.380;10.034;2022-08-06T12:12:31;2.08;;;1.00;;
27576;SDS011;15011;53.380;10.034;2022-08-06T12:17:32;5.40;;;1.30;;
27576;SDS011;15011;53.380;10.034;2022-08-06T12:22:33;5.43;;;2.20;;
27576;SDS011;15011;53.380;10.034;2022-08-06T12:27:35;3.95;;;2.45;;
27576;SDS011;15011;53.380;10.034;2022-08-06T12:32:36;4.80;;;2.53;;
27576;SDS011;15011;53.380;10.034;2022-08-06T12:37:40;6.83;;;2.57;;
27576;SDS011;15011;53.380;10.034;2022-08-06T12:42:43;5.32;;;2.50;;
27576;SDS011;15011;53.380;10.034;2022-08-06T12:47:51;5.03;;;2.53;;
27576;SDS011;15011;53.380;10.034;2022-08-06T12:58:04;3.83;;;2.20;;
27576;SDS011;15011;53.380;10.034;2022-08-06T13:03:05;5.03;;;2.90;;
27576;SDS011;15011;53.380;10.034;2022-08-06T13:08:06;9.32;;;7.00;;
27576;SDS011;15011;53.380;10.034;2022-08-06T13:13:06;6.53;;;2.42;;
27576;SDS011;15011;53.380;10.034;2022-08-06T13:18:11;3.45;;;2.80;;
27576;SDS011;15011;53.380;10.034;2022-08-06T13:23:14;4.22;;;2.40;;
27576;SDS011;15011;53.380;10.034;2022-08-06T13:28:15;5.85;;;2.90;;
27576;SDS011;15011;53.380;10.034;2022-08-06T13:38:26;7.15;;;2.95;;
27576;SDS011;15011;53.380;10.034;2022-08-06T13:43:38;4.70;;;2.88;;
27576;SDS011;15011;53.380;10.034;2022-08-06T13:48:46;4.57;;;3.40;;
27576;SDS011;15011;53.380;10.034;2022-08-06T13:53:48;5.25;;;3.58;;
27576;SDS011;15011;53.380;10.034;2022-08-06T13:58:49;8.20;;;3.40;;
27576;SDS011;15011;53.380;10.034;2022-08-06T14:03:49;5.17;;;3.37;;
27576;SDS011;15011;53.380;10.034;2022-08-06T14:08:50;4.68;;;3.35;;
27576;SDS011;15011;53.380;10.034;2022-08-06T14:13:50;4.18;;;3.50;;
27576;SDS011;15011;53.380;10.034;2022-08-06T14:18:51;4.65;;;3.38;;
27576;SDS011;15011;53.380;10.034;2022-08-06T14:23:52;5.75;;;4.43;;
27576;SDS011;15011;53.380;10.034;2022-08-06T14:28:52;6.60;;;4.70;;
27576;SDS011;15011;53.380;10.034;2022-08-06T14:33:53;6.18;;;3.53;;
27576;SDS011;15011;53.380;10.034;2022-08-06T14:38:54;3.58;;;2.80;;
27576;SDS011;15011;53.380;10.034;2022-08-06T14:43:54;4.73;;;3.07;;
27576;SDS011;15011;53.380;10.034;2022-08-06T14:49:13;3.67;;;2.60;;
27576;SDS011;15011;53.380;10.034;2022-08-06T14:54:14;5.77;;;2.50;;
27576;SDS011;15011;53.380;10.034;2022-08-06T15:04:16;3.90;;;2.87;;
27576;SDS011;15011;53.380;10.034;2022-08-06T15:09:17;3.40;;;2.90;;
27576;SDS011;15011;53.380;10.034;2022-08-06T15:14:17;23.55;;;14.73;;
27576;SDS011;15011;53.380;10.034;2022-08-06T15:19:18;11.48;;;8.15;;
27576;SDS011;15011;53.380;10.034;2022-08-06T15:24:19;7.23;;;3.90;;
27576;SDS011;15011;53.380;10.034;2022-08-06T15:29:20;19.83;;;15.23;;
27576;SDS011;15011;53.380;10.034;2022-08-06T15:34:23;5.55;;;4.68;;
27576;SDS011;15011;53.380;10.034;2022-08-06T15:39:23;5.35;;;3.75;;
27576;SDS011;15011;53.380;10.034;2022-08-06T15:44:23;6.77;;;4.23;;
27576;SDS011;15011;53.380;10.034;2022-08-06T15:49:24;3.75;;;2.83;;
27576;SDS011;15011;53.380;10.034;2022-08-06T15:54:24;4.10;;;2.75;;
27576;SDS011;15011;53.380;10.034;2022-08-06T15:59:25;6.53;;;3.58;;
27576;SDS011;15011;53.380;10.034;2022-08-06T16:04:25;6.65;;;5.75;;
27576;SDS011;15011;53.380;10.034;2022-08-06T16:09:26;19.33;;;13.90;;
27576;SDS011;15011;53.380;10.034;2022-08-06T16:14:26;5.75;;;3.95;;
27576;SDS011;15011;53.380;10.034;2022-08-06T16:19:27;5.00;;;3.80;;
27576;SDS011;15011;53.380;10.034;2022-08-06T16:24:28;28.50;;;18.63;;
27576;SDS011;15011;53.380;10.034;2022-08-06T16:29:29;6.93;;;4.40;;
27576;SDS011;15011;53.380;10.034;2022-08-06T16:39:31;4.87;;;4.17;;
27576;SDS011;15011;53.380;10.034;2022-08-06T16:44:31;11.02;;;4.63;;
27576;SDS011;15011;53.380;10.034;2022-08-06T16:49:33;6.95;;;4.35;;
27576;SDS011;15011;53.380;10.034;2022-08-06T16:54:33;8.90;;;4.75;;
27576;SDS011;15011;53.380;10.034;2022-08-06T16:59:34;5.80;;;4.27;;
27576;SDS011;15011;53.380;10.034;2022-08-06T17:04:34;6.10;;;4.90;;
27576;SDS011;15011;53.380;10.034;2022-08-06T17:09:34;8.48;;;5.43;;
27576;SDS011;15011;53.380;10.034;2022-08-06T17:14:35;8.88;;;5.85;;
27576;SDS011;15011;53.380;10.034;2022-08-06T17:19:36;5.75;;;5.00;;
27576;SDS011;15011;53.380;10.034;2022-08-06T17:24:36;7.68;;;5.15;;
27576;SDS011;15011;53.380;10.034;2022-08-06T17:29:37;6.43;;;4.78;;
27576;SDS011;15011;53.380;10.034;2022-08-06T17:34:38;9.38;;;5.25;;
27576;SDS011;15011;53.380;10.034;2022-08-06T17:39:39;8.10;;;4.90;;
27576;SDS011;15011;53.380;10.034;2022-08-06T17:44:40;8.55;;;5.20;;
27576;SDS011;15011;53.380;10.034;2022-08-06T17:49:40;7.57;;;5.45;;
27576;SDS011;15011;53.380;10.034;2022-08-06T17:54:43;8.45;;;5.20;;
27576;SDS011;15011;53.380;10.034;2022-08-06T17:59:47;10.95;;;5.65;;
27576;SDS011;15011;53.380;10.034;2022-08-06T18:04:48;7.85;;;6.05;;
27576;SDS011;15011;53.380;10.034;2022-08-06T18:09:49;7.80;;;5.10;;
27576;SDS011;15011;53.380;10.034;2022-08-06T18:15:08;8.00;;;6.15;;
27576;SDS011;15011;53.380;10.034;2022-08-06T18:20:09;7.15;;;5.50;;
27576;SDS011;15011;53.380;10.034;2022-08-06T18:25:10;6.95;;;6.13;;
27576;SDS011;15011;53.380;10.034;2022-08-06T18:30:15;9.65;;;6.38;;
27576;SDS011;15011;53.380;10.034;2022-08-06T18:35:17;8.07;;;5.72;;
27576;SDS011;15011;53.380;10.034;2022-08-06T18:40:17;14.98;;;6.50;;
27576;SDS011;15011;53.380;10.034;2022-08-06T18:45:17;8.80;;;6.07;;
27576;SDS011;15011;53.380;10.034;2022-08-06T18:50:18;7.63;;;5.45;;
27576;SDS011;15011;53.380;10.034;2022-08-06T18:55:19;11.15;;;6.63;;
27576;SDS011;15011;53.380;10.034;2022-08-06T19:00:19;12.10;;;6.15;;
27576;SDS011;15011;53.380;10.034;2022-08-06T19:05:21;7.43;;;5.72;;
27576;SDS011;15011;53.380;10.034;2022-08-06T19:10:22;11.18;;;6.30;;
27576;SDS011;15011;53.380;10.034;2022-08-06T19:15:23;8.13;;;6.20;;
27576;SDS011;15011;53.380;10.034;2022-08-06T19:20:24;8.23;;;6.03;;
27576;SDS011;15011;53.380;10.034;2022-08-06T19:25:24;8.00;;;6.18;;
27576;SDS011;15011;53.380;10.034;2022-08-06T19:30:24;12.05;;;7.03;;
27576;SDS011;15011;53.380;10.034;2022-08-06T19:35:25;9.82;;;6.05;;
27576;SDS011;15011;53.380;10.034;2022-08-06T19:40:28;9.05;;;7.18;;
27576;SDS011;15011;53.380;10.034;2022-08-06T19:45:48;10.77;;;7.22;;
27576;SDS011;15011;53.380;10.034;2022-08-06T19:50:50;10.65;;;8.13;;
27576;SDS011;15011;53.380;10.034;2022-08-06T19:55:51;13.38;;;9.27;;
27576;SDS011;15011;53.380;10.034;2022-08-06T20:00:51;12.07;;;8.70;;
27576;SDS011;15011;53.380;10.034;2022-08-06T20:05:52;13.32;;;8.38;;
27576;SDS011;15011;53.380;10.034;2022-08-06T20:10:53;12.50;;;8.45;;
27576;SDS011;15011;53.380;10.034;2022-08-06T20:15:56;11.93;;;7.72;;
27576;SDS011;15011;53.380;10.034;2022-08-06T20:20:58;11.25;;;8.38;;
27576;SDS011;15011;53.380;10.034;2022-08-06T20:25:59;12.75;;;8.13;;
27576;SDS011;15011;53.380;10.034;2022-08-06T20:31:00;12.68;;;8.63;;
27576;SDS011;15011;53.380;10.034;2022-08-06T20:36:01;15.32;;;9.70;;
27576;SDS011;15011;53.380;10.034;2022-08-06T20:41:01;10.35;;;8.90;;
27576;SDS011;15011;53.380;10.034;2022-08-06T20:46:02;12.88;;;7.88;;
27576;SDS011;15011;53.380;10.034;2022-08-06T20:51:03;13.13;;;9.02;;
27576;SDS011;15011;53.380;10.034;2022-08-06T20:56:05;13.98;;;9.35;;
27576;SDS011;15011;53.380;10.034;2022-08-06T21:01:07;14.35;;;10.15;;
27576;SDS011;15011;53.380;10.034;2022-08-06T21:06:07;20.25;;;11.50;;
27576;SDS011;15011;53.380;10.034;2022-08-06T21:11:09;19.08;;;11.52;;
27576;SDS011;15011;53.380;10.034;2022-08-06T21:16:10;54.28;;;34.05;;
27576;SDS011;15011;53.380;10.034;2022-08-06T21:21:11;14.90;;;9.73;;
27576;SDS011;15011;53.380;10.034;2022-08-06T21:26:12;17.10;;;11.67;;
27576;SDS011;15011;53.380;10.034;2022-08-06T21:31:13;17.75;;;10.75;;
27576;SDS011;15011;53.380;10.034;2022-08-06T21:36:13;13.57;;;9.45;;
27576;SDS011;15011;53.380;10.034;2022-08-06T21:41:14;14.77;;;9.95;;
27576;SDS011;15011;53.380;10.034;2022-08-06T21:46:29;13.88;;;9.65;;
27576;SDS011;15011;53.380;10.034;2022-08-06T21:51:30;15.85;;;9.45;;
27576;SDS011;15011;53.380;10.034;2022-08-06T21:56:30;13.43;;;8.65;;
27576;SDS011;15011;53.380;10.034;2022-08-06T22:01:31;12.35;;;8.80;;
27576;SDS011;15011;53.380;10.034;2022-08-06T22:06:32;14.25;;;9.52;;
27576;SDS011;15011;53.380;10.034;2022-08-06T22:11:32;13.90;;;9.18;;
27576;SDS011;15011;53.380;10.034;2022-08-06T22:16:33;13.35;;;9.10;;
27576;SDS011;15011;53.380;10.034;2022-08-06T22:21:33;14.63;;;8.97;;
27576;SDS011;15011;53.380;10.034;2022-08-06T22:26:33;13.10;;;9.48;;
27576;SDS011;15011;53.380;10.034;2022-08-06T22:31:35;16.45;;;9.70;;
27576;SDS011;15011;53.380;10.034;2022-08-06T22:41:37;17.20;;;10.00;;
27576;SDS011;15011;53.380;10.034;2022-08-06T22:46:37;16.95;;;10.75;;
27576;SDS011;15011;53.380;10.034;2022-08-06T22:51:38;18.38;;;10.30;;
27576;SDS011;15011;53.380;10.034;2022-08-06T22:56:38;15.45;;;10.45;;
27576;SDS011;15011;53.380;10.034;2022-08-06T23:01:39;16.38;;;10.25;;
27576;SDS011;15011;53.380;10.034;2022-08-06T23:06:39;16.15;;;10.75;;
27576;SDS011;15011;53.380;10.034;2022-08-06T23:11:39;16.00;;;11.50;;
27576;SDS011;15011;53.380;10.034;2022-08-06T23:16:40;16.52;;;10.65;;
27576;SDS011;15011;53.380;10.034;2022-08-06T23:21:40;15.40;;;10.00;;
27576;SDS011;15011;53.380;10.034;2022-08-06T23:26:41;18.97;;;11.27;;
27576;SDS011;15011;53.380;10.034;2022-08-06T23:31:41;19.13;;;12.10;;
27576;SDS011;15011;53.380;10.034;2022-08-06T23:36:42;19.80;;;12.07;;
27576;SDS011;15011;53.380;10.034;2022-08-06T23:41:43;18.55;;;12.20;;
27576;SDS011;15011;53.380;10.034;2022-08-06T23:46:43;17.30;;;12.55;;
27576;SDS011;15011;53.380;10.034;2022-08-06T23:51:44;18.60;;;11.90;;
27576;SDS011;15011;53.380;10.034;2022-08-06T23:56:47;17.40;;;11.80;;
